Time;durP1;ratioP1;P1;durP2;ratioP2;P2;SDS_P1;SDS_P2;PMS_P1;PMS_P2;Temp;Humidity;BMP_temperature;BMP_pressure;BME280_temperature;BME280_humidity;BME280_pressure;Samples;Min_cycle;Max_cycle;Signal;HPM_P1;HPM_P2
2023/01/24 00:02:11;;;;;;;9.73;7.25;;;;;;;5.99;59.21;102331.69;5051722;28;20409;-61
2023/01/24 00:04:40;;;;;;;6.63;5.68;;;;;;;6.03;59.14;102323.75;5051757;28;20059;-61
2023/01/24 00:07:07;;;;;;;7.43;5.82;;;;;;;5.99;58.79;102328.91;5051707;28;20075;-62
2023/01/24 00:09:34;;;;;;;8.13;6.57;;;;;;;5.86;58.90;102323.56;5051519;28;20477;-61
2023/01/24 00:12:01;;;;;;;8.85;7.03;;;;;;;5.85;59.09;102321.88;5051554;28;20057;-61
2023/01/24 00:14:29;;;;;;;8.60;7.35;;;;;;;5.89;59.57;102328.63;5051274;28;20056;-61
2023/01/24 00:16:56;;;;;;;8.75;7.22;;;;;;;5.95;59.44;102329.63;5051544;28;20057;-61
2023/01/24 00:19:23;;;;;;;8.93;7.03;;;;;;;5.98;59.63;102329.13;5052953;28;20049;-61
2023/01/24 00:21:52;;;;;;;6.75;5.90;;;;;;;6.01;59.32;102324.00;5055482;28;20057;-61
2023/01/24 00:24:19;;;;;;;7.68;6.32;;;;;;;6.03;59.30;102324.59;5055117;28;20056;-61
2023/01/24 00:26:46;;;;;;;7.88;6.25;;;;;;;6.01;59.23;102324.00;5055454;28;20057;-61
2023/01/24 00:29:17;;;;;;;7.28;5.78;;;;;;;6.01;58.92;102329.53;5046444;28;20053;-61
2023/01/24 00:31:47;;;;;;;7.20;6.28;;;;;;;5.95;58.86;102324.94;5052075;28;20075;-61
2023/01/24 00:34:15;;;;;;;7.97;6.10;;;;;;;6.02;58.89;102320.13;5054735;28;20052;-62
2023/01/24 00:36:42;;;;;;;7.38;6.20;;;;;;;6.06;58.72;102320.50;5054455;28;20067;-61
2023/01/24 00:39:12;;;;;;;7.97;6.00;;;;;;;6.06;58.91;102324.09;5054831;28;20052;-61
2023/01/24 00:41:39;;;;;;;6.70;5.68;;;;;;;6.04;59.01;102323.50;5054408;28;20057;-61
2023/01/24 00:44:06;;;;;;;7.50;6.05;;;;;;;6.05;58.95;102332.66;5054940;28;20060;-61
2023/01/24 00:46:33;;;;;;;7.35;5.78;;;;;;;6.10;59.05;102339.13;5054323;28;20056;-61
2023/01/24 00:49:01;;;;;;;7.18;5.60;;;;;;;6.05;58.35;102330.72;5041925;28;20057;-61
2023/01/24 00:51:28;;;;;;;7.07;5.68;;;;;;;6.04;58.51;102331.78;5034671;28;20057;-61
2023/01/24 00:53:55;;;;;;;7.60;5.97;;;;;;;6.04;58.72;102330.97;5034913;28;20045;-61
2023/01/24 00:56:24;;;;;;;6.85;5.63;;;;;;;5.99;58.58;102334.44;5039478;28;20057;-61
2023/01/24 00:58:52;;;;;;;7.15;5.35;;;;;;;5.97;58.21;102325.53;5048776;28;20060;-64
2023/01/24 01:01:19;;;;;;;6.10;5.25;;;;;;;5.96;58.19;102329.38;5054483;28;20063;-61
2023/01/24 01:03:49;;;;;;;6.03;5.35;;;;;;;6.05;58.10;102316.91;5054094;28;20056;-61
2023/01/24 01:06:16;;;;;;;;;;;;;;;6.02;58.76;102320.13;5054855;28;20060;-61
2023/01/24 01:08:44;;;;;;;7.78;5.65;;;;;;;6.03;58.70;102318.22;5053969;28;19925;-61
2023/01/24 01:11:11;;;;;;;7.45;5.50;;;;;;;6.06;58.29;102313.03;5054243;28;20053;-61
2023/01/24 01:13:42;;;;;;;7.32;5.20;;;;;;;6.06;57.88;102323.25;5054101;28;20052;-61
2023/01/24 01:16:12;;;;;;;7.30;5.60;;;;;;;6.07;58.41;102325.81;5054456;28;20057;-61
2023/01/24 01:18:39;;;;;;;;;;;;;;;6.06;58.24;102321.34;5054460;28;20481;-61
2023/01/24 01:21:07;;;;;;;6.80;5.03;;;;;;;6.05;58.66;102322.44;5054091;28;20377;-61
2023/01/24 01:23:34;;;;;;;5.88;4.97;;;;;;;6.09;58.33;102326.41;5053745;28;20056;-61
2023/01/24 01:26:02;;;;;;;7.50;5.68;;;;;;;5.94;58.56;102325.97;5054278;28;20052;-61
2023/01/24 01:28:30;;;;;;;7.10;5.70;;;;;;;6.03;58.58;102319.06;5053977;28;20049;-61
2023/01/24 01:30:59;;;;;;;7.03;5.00;;;;;;;6.05;58.13;102325.19;5053088;28;20060;-61
2023/01/24 01:33:27;;;;;;;6.72;5.43;;;;;;;6.12;58.39;102330.59;5053557;28;20494;-61
2023/01/24 01:35:54;;;;;;;6.82;5.80;;;;;;;6.11;58.97;102340.00;5053774;28;20053;-61
2023/01/24 01:38:24;;;;;;;6.63;5.13;;;;;;;6.10;58.51;102339.13;5053801;28;20053;-61
2023/01/24 01:40:51;;;;;;;;;;;;;;;6.14;58.37;102336.75;5054275;28;20053;-61
2023/01/24 01:43:20;;;;;;;7.30;5.78;;;;;;;6.12;58.35;102343.59;5053542;28;20297;-61
2023/01/24 01:45:49;;;;;;;6.80;5.03;;;;;;;6.12;57.84;102343.59;5053950;28;20049;-61
2023/01/24 01:48:22;;;;;;;5.70;5.10;;;;;;;6.05;57.55;102343.72;5053646;28;20464;-61
2023/01/24 01:50:55;;;;;;;6.28;5.00;;;;;;;6.08;57.73;102341.31;5053423;28;20063;-61
2023/01/24 01:53:26;;;;;;;5.80;4.75;;;;;;;6.08;57.71;102343.22;5053497;28;20056;-61
2023/01/24 01:56:00;;;;;;;7.43;4.90;;;;;;;6.09;57.99;102334.69;5054063;28;20469;-61
2023/01/24 01:58:28;;;;;;;5.68;4.63;;;;;;;6.15;58.28;102343.13;5053394;28;20048;-61
2023/01/24 02:00:55;;;;;;;5.07;4.43;;;;;;;6.14;57.45;102338.69;5053651;28;20075;-61
2023/01/24 02:03:40;;;;;;;5.95;4.90;;;;;;;6.12;57.14;102346.38;5053514;28;20401;-61
2023/01/24 02:06:26;;;;;;;5.40;4.30;;;;;;;6.08;57.07;102343.22;5053502;28;20048;-61
2023/01/24 02:08:54;;;;;;;5.28;4.63;;;;;;;6.13;57.10;102334.22;5053483;28;20053;-61
2023/01/24 02:11:40;;;;;;;4.93;4.38;;;;;;;6.01;57.32;102335.06;5053294;28;20056;-61
2023/01/24 02:16:55;;;;;;;5.95;4.95;;;;;;;5.98;57.04;102335.50;5059216;28;20080;-61
2023/01/24 02:19:56;;;;;;;6.10;4.93;;;;;;;6.03;57.39;102332.88;5052793;28;20049;-61
2023/01/24 02:22:31;;;;;;;6.53;4.97;;;;;;;6.05;57.30;102327.97;5052787;28;20053;-61
2023/01/24 02:25:06;;;;;;;6.88;5.53;;;;;;;6.06;57.15;102332.41;5053253;28;20060;-61
2023/01/24 02:27:35;;;;;;;6.50;4.97;;;;;;;6.08;56.84;102330.22;5053050;28;20060;-61
2023/01/24 02:30:02;;;;;;;6.50;5.05;;;;;;;6.02;57.02;102328.41;5053139;28;20053;-61
2023/01/24 02:32:29;;;;;;;5.95;5.25;;;;;;;6.00;57.26;102332.50;5052791;28;20056;-60
2023/01/24 02:34:57;;;;;;;5.68;5.00;;;;;;;6.00;57.17;102330.59;5053158;28;20053;-61
2023/01/24 02:37:25;;;;;;;7.28;5.20;;;;;;;5.95;56.78;102322.16;5052989;28;20055;-61
2023/01/24 02:39:59;;;;;;;6.07;5.40;;;;;;;5.86;57.20;102315.28;5050437;28;20052;-61
2023/01/24 02:42:32;;;;;;;6.75;5.20;;;;;;;5.91;56.41;102320.94;5051344;28;20056;-61
2023/01/24 02:45:04;;;;;;;5.95;4.88;;;;;;;5.79;57.51;102323.66;5051578;28;20045;-61
2023/01/24 02:47:36;;;;;;;6.30;4.78;;;;;;;5.84;56.70;102320.19;5052512;28;20049;-61
2023/01/24 02:50:04;;;;;;;6.03;4.65;;;;;;;5.73;57.42;102321.00;5051888;28;20432;-61
2023/01/24 02:55:16;;;;;;;5.85;4.95;;;;;;;5.65;57.33;102317.50;5053315;28;20056;-61
2023/01/24 03:00:29;;;;;;;5.93;5.03;;;;;;;5.58;57.74;102316.75;5051551;28;21000;-61
2023/01/24 03:02:57;;;;;;;6.43;5.60;;;;;;;5.57;57.94;102315.06;5050100;28;20052;-61
2023/01/24 03:05:24;;;;;;;6.47;5.35;;;;;;;5.56;58.31;102309.78;5051638;28;20049;-61
2023/01/24 03:07:51;;;;;;;7.15;5.65;;;;;;;5.64;58.07;102304.75;5052029;28;20057;-61
2023/01/24 03:10:19;;;;;;;6.65;5.28;;;;;;;5.67;57.85;102304.28;5051720;28;20512;-61
2023/01/24 03:34:50;;;;;;;6.70;5.40;;;;;;;5.78;57.63;102308.16;5041762;28;20064;-61
2023/01/24 03:39:53;;;;;;;7.13;5.57;;;;;;;5.75;57.39;102310.53;5031879;28;20065;-61
2023/01/24 03:40:08;;;;;;;6.75;5.55;;;;;;;5.78;58.01;102299.03;5032485;28;20058;-61
2023/01/24 03:42:38;;;;;;;6.93;5.40;;;;;;;5.80;58.17;102302.41;5031576;28;20068;-61
2023/01/24 03:45:16;;;;;;;7.50;5.55;;;;;;;5.81;57.85;102302.13;5049037;28;20405;-61
2023/01/24 03:47:54;;;;;;;7.60;5.80;;;;;;;5.83;57.93;102297.22;5050058;28;20056;-61
2023/01/24 03:53:10;;;;;;;7.63;5.97;;;;;;;5.69;57.92;102302.13;5054749;28;20060;-61
2023/01/24 03:55:38;;;;;;;7.55;5.95;;;;;;;5.69;58.11;102306.78;5055492;28;20060;-61
2023/01/24 03:58:07;;;;;;;6.20;5.03;;;;;;;5.72;58.00;102308.28;5054084;28;20493;-61
2023/01/24 04:00:34;;;;;;;7.70;6.30;;;;;;;5.68;58.03;102305.13;5053650;28;20048;-60
2023/01/24 04:03:04;;;;;;;8.60;6.13;;;;;;;5.75;58.17;102307.78;5054614;28;20049;-61
2023/01/24 04:05:33;;;;;;;7.15;6.10;;;;;;;5.76;57.84;102307.56;5052536;28;20076;-61
2023/01/24 04:08:00;;;;;;;7.82;6.50;;;;;;;5.76;57.36;102299.25;5049581;28;20059;-61
2023/01/24 04:10:27;;;;;;;7.43;6.28;;;;;;;5.66;57.63;102297.06;5053241;28;20072;-61
2023/01/24 04:12:55;;;;;;;8.18;6.38;;;;;;;5.69;58.18;102292.97;5054988;28;20052;-61
2023/01/24 04:15:25;;;;;;;6.72;5.63;;;;;;;5.73;57.73;102290.59;5053269;28;20057;-61
2023/01/24 04:17:55;;;;;;;6.63;5.70;;;;;;;5.75;57.97;102293.94;5038881;28;20053;-61
2023/01/24 04:20:29;;;;;;;7.40;5.55;;;;;;;5.66;58.19;102299.00;5051486;28;20048;-61
2023/01/24 04:22:56;;;;;;;7.78;6.53;;;;;;;5.62;58.28;102290.31;5054788;28;20041;-61
2023/01/24 04:25:24;;;;;;;7.28;5.75;;;;;;;5.70;57.96;102289.16;5055687;28;20053;-61
2023/01/24 04:27:51;;;;;;;7.07;5.63;;;;;;;5.72;58.13;102291.69;5055241;28;20433;-61
2023/01/24 04:30:18;;;;;;;7.72;6.50;;;;;;;5.72;58.10;102294.44;5055569;28;20048;-60
2023/01/24 04:32:45;;;;;;;7.20;6.00;;;;;;;5.69;58.33;102290.22;5055065;28;20053;-61
2023/01/24 04:35:17;;;;;;;7.43;5.75;;;;;;;5.61;58.08;102294.19;5055265;28;20049;-61
2023/01/24 04:37:47;;;;;;;8.23;6.13;;;;;;;5.61;58.38;102296.09;5054092;28;20053;-61
2023/01/24 04:40:14;;;;;;;;;;;;;;;5.57;58.19;102298.50;5042837;28;20057;-60
2023/01/24 04:42:42;;;;;;;8.23;6.68;;;;;;;5.56;58.28;102295.94;5034327;28;19921;-61
2023/01/24 04:45:11;;;;;;;7.88;5.80;;;;;;;5.57;58.24;102287.44;5035252;28;20060;-61
2023/01/24 04:47:38;;;;;;;8.00;6.18;;;;;;;5.63;58.16;102291.19;5034698;28;20049;-62
2023/01/24 04:50:06;;;;;;;6.88;5.80;;;;;;;5.62;58.32;102292.25;5038133;28;20048;-61
2023/01/24 04:52:34;;;;;;;6.60;5.55;;;;;;;5.63;58.55;102296.72;5054557;28;20052;-61
2023/01/24 04:55:02;;;;;;;7.65;6.10;;;;;;;5.66;58.57;102305.34;5039912;28;20060;-60
2023/01/24 04:57:29;;;;;;;6.88;5.90;;;;;;;5.67;58.27;102309.81;5049469;28;20394;-60
2023/01/24 04:59:57;;;;;;;7.20;5.80;;;;;;;5.64;58.30;102306.66;5054584;28;20053;-60
2023/01/24 05:02:24;;;;;;;7.10;6.18;;;;;;;5.70;59.46;102308.50;5054840;28;20057;-61
2023/01/24 05:04:51;;;;;;;7.72;6.32;;;;;;;5.74;59.89;102315.25;5054014;28;20057;-61
2023/01/24 05:07:18;;;;;;;7.88;6.95;;;;;;;5.76;58.87;102307.56;5053413;28;20494;-61
2023/01/24 05:09:46;;;;;;;7.82;6.78;;;;;;;5.69;58.50;102313.19;5054274;28;20064;-61
2023/01/24 05:12:18;;;;;;;7.60;6.50;;;;;;;5.74;58.36;102306.09;5038364;28;20402;-61
2023/01/24 05:14:45;;;;;;;7.30;5.93;;;;;;;5.77;58.21;102309.22;5034391;28;20057;-61
2023/01/24 05:17:12;;;;;;;7.15;6.43;;;;;;;5.75;57.61;102311.38;5047091;28;20053;-61
2023/01/24 05:19:40;;;;;;;7.97;6.30;;;;;;;5.72;57.66;102311.88;5052069;28;20135;-60
2023/01/24 05:22:07;;;;;;;7.40;6.22;;;;;;;5.75;58.01;102311.38;5053483;28;20060;-61
2023/01/24 05:24:34;;;;;;;7.80;6.03;;;;;;;5.81;57.37;102315.13;5052122;28;20053;-60
2023/01/24 05:27:01;;;;;;;6.85;6.00;;;;;;;5.75;57.65;102313.31;5053487;28;20049;-60
2023/01/24 05:29:30;;;;;;;8.32;6.35;;;;;;;5.76;57.67;102306.72;5035993;28;20057;-60
2023/01/24 05:31:57;;;;;;;7.35;6.28;;;;;;;5.75;57.53;102316.06;5044926;28;20413;-60
2023/01/24 05:34:27;;;;;;;7.43;6.00;;;;;;;5.75;57.50;102325.19;5054011;28;20049;-61
2023/01/24 05:36:54;;;;;;;9.93;7.68;;;;;;;5.74;57.38;102319.94;5052371;28;20359;-60
2023/01/24 05:39:22;;;;;;;6.57;5.85;;;;;;;5.68;57.74;102313.41;5053829;28;20075;-61
2023/01/24 05:41:49;;;;;;;7.88;6.32;;;;;;;5.62;57.38;102317.97;5051412;28;20060;-60
2023/01/24 05:44:16;;;;;;;7.93;6.63;;;;;;;5.67;57.70;102320.03;5050530;28;20052;-60
2023/01/24 05:46:45;;;;;;;7.50;5.97;;;;;;;5.69;57.87;102327.00;5050910;28;20049;-60
2023/01/24 05:49:12;;;;;;;7.80;6.13;;;;;;;5.66;57.56;102323.88;5045353;28;20059;-60
2023/01/24 05:51:40;;;;;;;7.13;5.82;;;;;;;5.62;57.57;102328.19;5053028;28;20124;-60
2023/01/24 05:54:07;;;;;;;8.20;6.57;;;;;;;5.66;57.38;102329.41;5053962;28;20053;-60
2023/01/24 05:56:35;;;;;;;7.30;6.13;;;;;;;5.66;57.36;102330.22;5051243;28;20060;-61
2023/01/24 05:59:02;;;;;;;7.88;6.82;;;;;;;5.65;57.52;102328.56;5051140;28;20053;-60
2023/01/24 06:01:29;;;;;;;8.32;6.93;;;;;;;5.56;57.54;102329.94;5051889;28;20405;-60
2023/01/24 06:03:58;;;;;;;8.50;6.65;;;;;;;5.44;58.01;102331.84;5047415;28;20401;-60
2023/01/24 06:06:26;;;;;;;8.18;6.30;;;;;;;5.46;57.57;102332.47;5050522;28;20060;-60
2023/01/24 06:08:53;;;;;;;8.52;7.03;;;;;;;5.45;57.70;102341.81;5050122;28;20052;-60
2023/01/24 06:11:24;;;;;;;8.00;6.68;;;;;;;5.50;57.76;102344.72;5050499;28;20053;-60
2023/01/24 06:13:51;;;;;;;9.38;7.05;;;;;;;5.54;57.97;102343.16;5049158;28;20057;-61
2023/01/24 06:16:21;;;;;;;8.23;7.38;;;;;;;5.54;58.21;102340.41;5051514;28;20052;-60
2023/01/24 06:18:49;;;;;;;8.95;7.57;;;;;;;5.59;57.99;102351.63;5052761;28;20049;-59
2023/01/24 06:21:29;;;;;;;8.70;7.28;;;;;;;5.67;58.12;102358.75;5052855;28;20053;-61
2023/01/24 06:23:56;;;;;;;10.40;8.27;;;;;;;5.68;57.89;102366.78;5052969;28;20052;-61
2023/01/24 06:26:24;;;;;;;9.55;7.85;;;;;;;5.72;57.60;102361.63;5053213;28;20493;-60
2023/01/24 06:28:52;;;;;;;8.90;7.40;;;;;;;5.72;57.76;102355.28;5052856;28;20053;-62
2023/01/24 06:31:36;;;;;;;10.15;8.07;;;;;;;5.73;57.67;102362.47;5053139;28;20053;-62
2023/01/24 06:34:18;;;;;;;9.30;7.57;;;;;;;5.76;57.87;102362.00;5052958;28;20064;-61
2023/01/24 06:36:59;;;;;;;9.20;7.43;;;;;;;5.72;57.66;102369.94;5052759;28;20071;-60
2023/01/24 06:39:27;;;;;;;9.60;7.40;;;;;;;5.73;57.66;102374.38;5052991;28;20512;-60
2023/01/24 06:41:55;;;;;;;8.93;7.43;;;;;;;5.74;57.32;102378.84;5052194;28;20072;-60
2023/01/24 06:44:24;;;;;;;8.15;6.93;;;;;;;5.65;57.40;102375.56;5052877;28;20068;-59
2023/01/24 06:46:51;;;;;;;9.40;7.82;;;;;;;5.66;57.53;102380.00;5052604;28;20501;-59
2023/01/24 06:49:18;;;;;;;9.43;7.88;;;;;;;5.65;57.59;102383.84;5052353;28;20052;-60
2023/01/24 06:51:51;;;;;;;9.10;7.20;;;;;;;5.68;57.50;102388.91;5052688;28;20052;-60
2023/01/24 06:54:21;;;;;;;9.48;7.40;;;;;;;5.67;57.55;102392.75;5052547;28;20052;-59
2023/01/24 06:56:49;;;;;;;8.77;6.93;;;;;;;5.73;56.91;102392.88;5052254;28;20048;-60
2023/01/24 06:59:22;;;;;;;10.05;7.68;;;;;;;5.76;57.16;102392.44;5052480;28;20060;-60
2023/01/24 07:01:52;;;;;;;10.57;7.82;;;;;;;5.78;57.30;102393.88;5052032;28;20059;-60
2023/01/24 07:04:19;;;;;;;;;;;;;;;5.69;57.24;102398.91;5052814;28;20379;-59
2023/01/24 07:06:52;;;;;;;9.40;7.20;;;;;;;5.61;57.21;102395.63;5052208;28;19921;-60
2023/01/24 07:09:21;;;;;;;10.10;7.15;;;;;;;5.68;57.45;102399.97;5052242;28;20052;-59
2023/01/24 07:11:52;;;;;;;9.30;7.70;;;;;;;5.66;57.04;102401.28;5052234;28;20060;-60
2023/01/24 07:14:20;;;;;;;9.63;7.78;;;;;;;5.66;57.06;102402.13;5052096;28;20053;-59
2023/01/24 07:16:47;;;;;;;10.18;7.78;;;;;;;5.59;57.43;102409.66;5051620;28;20049;-59
2023/01/24 07:19:17;;;;;;;9.10;7.13;;;;;;;5.65;57.30;102407.91;5052248;28;20057;-59
2023/01/24 07:21:48;;;;;;;10.00;7.90;;;;;;;5.59;57.56;102406.91;5052044;28;20053;-60
2023/01/24 07:24:19;;;;;;;9.05;7.40;;;;;;;5.63;57.40;102412.81;5052216;28;20079;-60
2023/01/24 07:26:50;;;;;;;8.57;7.32;;;;;;;5.62;57.52;102400.88;5052173;28;20404;-60
2023/01/24 07:29:26;;;;;;;8.15;6.70;;;;;;;5.65;57.63;102405.97;5053695;28;20056;-61
2023/01/24 07:31:56;;;;;;;8.75;7.60;;;;;;;5.63;57.13;102408.13;5056752;28;20057;-59
2023/01/24 07:34:23;;;;;;;8.25;7.10;;;;;;;5.63;57.40;102410.06;5056201;28;20068;-61
2023/01/24 07:36:53;;;;;;;9.23;7.10;;;;;;;5.70;57.17;102408.88;5055948;28;20045;-61
2023/01/24 07:39:21;;;;;;;8.23;7.00;;;;;;;5.67;57.12;102405.75;5056237;28;20061;-60
2023/01/24 07:41:50;;;;;;;8.00;6.38;;;;;;;5.73;57.37;102415.00;5055550;28;20052;-59
2023/01/24 07:44:18;;;;;;;8.18;7.03;;;;;;;5.72;57.12;102416.09;5055790;28;20064;-60
2023/01/24 07:46:45;;;;;;;9.65;7.32;;;;;;;5.72;56.84;102413.34;5056044;28;20056;-60
2023/01/24 07:49:12;;;;;;;8.65;6.82;;;;;;;5.75;56.86;102415.63;5055923;28;20405;-60
2023/01/24 07:51:39;;;;;;;8.20;6.80;;;;;;;5.72;56.80;102425.22;5056058;28;20056;-59
2023/01/24 07:54:07;;;;;;;7.45;6.00;;;;;;;5.77;56.68;102419.00;5055627;28;20469;-60
2023/01/24 07:56:37;;;;;;;9.05;6.65;;;;;;;5.78;56.36;102427.06;5055981;28;20053;-59
2023/01/24 07:59:06;;;;;;;8.18;6.55;;;;;;;5.73;56.98;102437.13;5055513;28;20052;-59
2023/01/24 08:01:33;;;;;;;8.00;7.00;;;;;;;5.81;56.95;102436.81;5041263;28;20058;-59
2023/01/24 08:04:01;;;;;;;7.68;6.55;;;;;;;5.85;56.38;102429.72;5035674;28;20053;-59
2023/01/24 08:06:28;;;;;;;9.07;6.95;;;;;;;5.85;56.19;102432.50;5035715;28;20049;-60
2023/01/24 08:08:55;;;;;;;8.13;6.93;;;;;;;5.74;56.95;102436.06;5035540;28;20402;-61
2023/01/24 08:11:22;;;;;;;8.93;7.05;;;;;;;5.66;56.84;102435.28;5035857;28;20053;-59
2023/01/24 08:13:50;;;;;;;9.50;7.90;;;;;;;5.63;57.09;102444.06;5035420;28;20493;-60
2023/01/24 08:16:23;;;;;;;9.90;7.38;;;;;;;5.76;56.76;102442.19;5035615;28;20057;-59
2023/01/24 08:18:50;;;;;;;9.55;7.65;;;;;;;5.78;56.69;102440.88;5035335;28;20060;-61
2023/01/24 08:21:18;;;;;;;9.15;7.65;;;;;;;5.81;56.41;102443.16;5035616;28;20053;-59
2023/01/24 08:23:45;;;;;;;9.20;7.68;;;;;;;5.89;56.59;102445.59;5035023;28;20068;-60
2023/01/24 08:26:12;;;;;;;10.25;8.13;;;;;;;5.90;56.53;102452.00;5034983;28;20056;-59
2023/01/24 08:28:40;;;;;;;8.60;7.72;;;;;;;5.89;56.66;102450.31;5035430;28;20402;-59
2023/01/24 08:31:07;;;;;;;8.45;7.28;;;;;;;5.98;56.32;102461.91;5034357;28;20064;-59
2023/01/24 08:33:37;;;;;;;8.10;6.82;;;;;;;6.04;56.20;102456.28;5035258;28;20062;-59
2023/01/24 08:36:05;;;;;;;10.10;8.30;;;;;;;6.08;55.91;102456.66;5034949;28;20422;-60
2023/01/24 08:38:33;;;;;;;8.65;7.18;;;;;;;6.12;56.07;102449.56;5034585;28;20053;-60
2023/01/24 08:41:03;;;;;;;8.15;7.00;;;;;;;6.03;55.33;102453.78;5034481;28;20505;-59
2023/01/24 08:43:31;;;;;;;8.45;7.50;;;;;;;5.85;56.03;102454.63;5034963;28;20486;-60
2023/01/24 08:45:58;;;;;;;9.63;8.07;;;;;;;5.86;55.95;102457.16;5035013;28;20080;-60
2023/01/24 08:48:28;;;;;;;8.32;7.45;;;;;;;5.82;55.89;102455.94;5034839;28;20057;-60
2023/01/24 08:50:57;;;;;;;9.23;7.63;;;;;;;5.81;56.00;102459.75;5034634;28;20061;-60
2023/01/24 08:53:24;;;;;;;8.32;7.20;;;;;;;5.88;56.02;102465.22;5034614;28;20423;-60
2023/01/24 08:55:52;;;;;;;9.45;7.00;;;;;;;5.93;55.76;102464.50;5034847;28;20049;-61
2023/01/24 08:58:20;;;;;;;8.80;7.35;;;;;;;5.66;56.08;102471.22;5034418;28;20045;-60
2023/01/24 09:00:47;;;;;;;8.65;7.75;;;;;;;5.64;56.48;102467.00;5042747;28;20049;-60
2023/01/24 09:03:17;;;;;;;8.07;7.28;;;;;;;5.79;56.81;102456.38;5054485;28;20079;-60
2023/01/24 09:05:45;;;;;;;8.60;7.47;;;;;;;6.09;56.14;102459.19;5054943;28;20529;-61
2023/01/24 09:08:13;;;;;;;9.50;7.78;;;;;;;6.26;55.64;102458.53;5054175;28;20053;-60
2023/01/24 09:10:41;;;;;;;8.10;6.88;;;;;;;6.38;56.02;102461.31;5054555;28;20056;-61
2023/01/24 09:13:08;;;;;;;9.27;7.90;;;;;;;6.57;55.04;102459.31;5054471;28;20053;-59
2023/01/24 09:15:35;;;;;;;8.50;7.00;;;;;;;6.66;55.31;102461.50;5054184;28;20061;-60
2023/01/24 09:18:03;;;;;;;7.57;6.78;;;;;;;6.75;54.89;102467.50;5054238;28;20500;-61
2023/01/24 09:20:30;;;;;;;8.32;7.30;;;;;;;6.79;54.14;102471.50;5054612;28;20063;-61
2023/01/24 09:22:58;;;;;;;7.25;6.32;;;;;;;6.85;53.55;102473.31;5054324;28;20053;-60
2023/01/24 09:25:27;;;;;;;8.45;7.10;;;;;;;6.84;53.03;102473.53;5054462;28;20049;-60
2023/01/24 09:27:54;;;;;;;7.22;6.47;;;;;;;6.80;53.00;102481.47;5053684;28;20425;-60
2023/01/24 09:30:22;;;;;;;8.10;6.70;;;;;;;6.66;53.98;102480.88;5053964;28;20136;-58
2023/01/24 09:32:51;;;;;;;7.10;6.00;;;;;;;6.58;53.83;102486.75;5054227;28;20071;-60
2023/01/24 09:35:18;;;;;;;7.35;6.53;;;;;;;6.55;53.64;102487.25;5053898;28;20057;-61
2023/01/24 09:37:45;;;;;;;8.00;6.22;;;;;;;6.51;53.25;102494.34;5054039;28;20049;-61
2023/01/24 09:40:22;;;;;;;6.95;6.20;;;;;;;6.33;54.30;102489.69;5053953;28;20060;-60
2023/01/24 09:43:01;;;;;;;7.70;6.90;;;;;;;6.23;54.16;102489.44;5053017;28;20071;-61
2023/01/24 09:45:31;;;;;;;8.00;6.93;;;;;;;6.28;55.09;102490.41;5053594;28;20064;-61
2023/01/24 09:48:02;;;;;;;7.82;6.97;;;;;;;6.48;54.86;102494.78;5053222;28;20052;-61
2023/01/24 09:50:37;;;;;;;9.85;8.32;;;;;;;6.50;54.77;102496.25;5053600;28;20049;-60
2023/01/24 09:53:05;;;;;;;7.80;7.00;;;;;;;6.73;53.83;102491.84;5052508;28;20064;-61
2023/01/24 09:55:35;;;;;;;8.40;7.07;;;;;;;6.84;53.98;102498.47;5053309;28;20053;-61
2023/01/24 09:58:08;;;;;;;7.78;6.97;;;;;;;6.94;53.17;102504.25;5053092;28;20052;-61
2023/01/24 10:00:38;;;;;;;8.25;7.38;;;;;;;7.00;53.15;102499.69;5053558;28;20052;-60
2023/01/24 10:03:19;;;;;;;;;;;;;;;7.13;52.79;102501.38;5053692;28;20512;-61
2023/01/24 10:05:49;;;;;;;7.63;6.80;;;;;;;7.15;52.51;102500.03;5053261;28;19921;-61
2023/01/24 10:08:20;;;;;;;;;;;;;;;7.11;53.27;102496.06;5053777;28;20060;-61
2023/01/24 10:10:58;;;;;;;9.20;7.40;;;;;;;7.11;53.11;102490.53;5053403;28;20285;-61
2023/01/24 10:13:50;;;;;;;8.23;7.25;;;;;;;7.24;51.98;102498.56;5053063;28;20049;-61
2023/01/24 10:16:37;;;;;;;7.20;6.50;;;;;;;7.27;52.79;102498.13;5053183;28;20064;-61
2023/01/24 10:19:17;;;;;;;7.72;6.80;;;;;;;7.33;53.18;102499.09;5050070;28;20482;-61
2023/01/24 10:22:00;;;;;;;7.80;6.57;;;;;;;7.37;52.54;102502.19;5053214;28;20056;-60
2023/01/24 10:24:31;;;;;;;8.10;6.63;;;;;;;7.44;52.15;102492.66;5052924;28;20061;-61
2023/01/24 10:27:01;;;;;;;7.15;6.43;;;;;;;7.46;52.13;102496.03;5053127;28;20379;-61
2023/01/24 10:29:32;;;;;;;8.35;7.47;;;;;;;7.59;51.67;102492.16;5052771;28;20049;-61
2023/01/24 10:32:03;;;;;;;7.80;7.00;;;;;;;7.64;51.69;102500.59;5052569;28;20053;-61
2023/01/24 10:34:35;;;;;;;7.25;6.55;;;;;;;7.67;50.69;102491.78;5053046;28;20049;-61
2023/01/24 10:37:06;;;;;;;6.78;6.05;;;;;;;7.72;51.85;102491.88;5052549;28;20405;-61
2023/01/24 10:39:34;;;;;;;7.72;6.80;;;;;;;7.77;50.57;102481.97;5052456;28;20060;-61
2023/01/24 10:42:03;;;;;;;8.32;7.03;;;;;;;7.87;50.44;102484.94;5052451;28;20075;-61
2023/01/24 10:44:37;;;;;;;9.73;8.30;;;;;;;7.91;51.40;102489.75;5052924;28;20049;-61
2023/01/24 10:47:36;;;;;;;7.90;7.10;;;;;;;7.97;50.30;102482.38;5052262;28;20056;-61
2023/01/24 10:50:06;;;;;;;7.68;6.93;;;;;;;7.65;51.76;102477.31;5052681;28;20387;-61
2023/01/24 10:52:34;;;;;;;7.53;6.47;;;;;;;7.76;52.10;102472.81;5052837;28;20057;-61
2023/01/24 10:55:02;;;;;;;7.35;6.65;;;;;;;7.79;51.91;102474.25;5052546;28;20424;-61
2023/01/24 10:57:42;;;;;;;7.90;6.88;;;;;;;7.86;50.31;102481.34;5052901;28;20053;-60
2023/01/24 11:00:27;;;;;;;9.00;7.32;;;;;;;7.73;51.88;102479.69;5052151;28;20494;-61
2023/01/24 11:02:56;;;;;;;8.23;7.00;;;;;;;7.68;50.68;102471.25;5052272;28;20052;-61
2023/01/24 11:05:25;;;;;;;7.90;7.10;;;;;;;7.78;51.35;102478.13;5052338;28;20060;-61
2023/01/24 11:07:55;;;;;;;7.40;6.65;;;;;;;7.83;51.86;102476.31;5052263;28;20471;-61
2023/01/24 11:10:25;;;;;;;10.32;8.27;;;;;;;7.83;52.00;102465.19;5052105;28;20064;-59
2023/01/24 11:12:55;;;;;;;8.15;6.80;;;;;;;7.93;51.57;102470.09;5052544;28;20370;-61
2023/01/24 11:15:26;;;;;;;6.68;5.97;;;;;;;8.00;50.30;102454.16;5051977;28;20433;-61
2023/01/24 11:17:57;;;;;;;7.05;6.35;;;;;;;8.11;51.06;102458.78;5052600;28;20060;-61
2023/01/24 11:20:29;;;;;;;7.68;6.65;;;;;;;8.25;50.69;102464.03;5052102;28;20060;-60
2023/01/24 11:23:05;;;;;;;6.95;6.22;;;;;;;8.31;49.46;102460.25;5051852;28;20049;-60
2023/01/24 11:25:33;;;;;;;7.13;6.43;;;;;;;8.31;50.56;102463.84;5051848;28;20057;-60
2023/01/24 11:28:00;;;;;;;7.05;6.15;;;;;;;8.29;51.04;102468.00;5052050;28;20075;-61
2023/01/24 11:30:34;;;;;;;7.20;6.43;;;;;;;8.46;49.19;102463.34;5051762;28;20063;-61
2023/01/24 11:33:17;;;;;;;6.65;5.95;;;;;;;8.62;49.82;102463.59;5052254;28;20053;-61
2023/01/24 11:35:47;;;;;;;6.55;5.70;;;;;;;8.58;49.97;102460.47;5051953;28;20053;-61
2023/01/24 11:38:22;;;;;;;;;;;;;;;8.35;48.22;102464.22;5052391;28;20063;-60
2023/01/24 11:41:09;;;;;;;7.53;6.40;;;;;;;8.30;49.00;102458.59;5051851;28;19928;-60
2023/01/24 11:43:56;;;;;;;7.53;6.25;;;;;;;8.36;48.67;102454.81;5052157;28;20486;-59
2023/01/24 11:46:45;;;;;;;7.03;6.30;;;;;;;8.38;49.72;102455.41;5052137;28;20489;-60
2023/01/24 11:49:31;;;;;;;6.65;5.60;;;;;;;8.26;48.15;102443.50;5051614;28;20056;-60
2023/01/24 11:52:16;;;;;;;6.25;5.65;;;;;;;7.85;49.70;102454.69;5052152;28;20079;-60
2023/01/24 11:54:51;;;;;;;6.80;5.78;;;;;;;7.85;49.09;102439.97;5052302;28;20053;-59
2023/01/24 11:57:35;;;;;;;6.82;5.68;;;;;;;7.96;50.90;102449.31;5051922;28;20421;-61
2023/01/24 12:00:21;;;;;;;6.00;5.32;;;;;;;8.12;50.34;102438.25;5051432;28;20049;-61
2023/01/24 12:03:10;;;;;;;7.75;7.00;;;;;;;8.09;50.15;102438.78;5052239;28;20060;-61
2023/01/24 12:05:54;;;;;;;7.00;5.77;;;;;;;8.30;49.17;102430.81;5052079;28;20049;-61
2023/01/24 12:08:39;;;;;;;6.25;5.45;;;;;;;8.49;49.71;102431.44;5051461;28;20052;-60
2023/01/24 12:11:15;;;;;;;6.78;5.85;;;;;;;8.48;49.82;102425.06;5051483;28;20053;-60
2023/01/24 12:13:49;;;;;;;6.93;5.88;;;;;;;8.31;48.21;102424.16;5051816;28;20072;-60
2023/01/24 12:16:31;;;;;;;6.50;5.80;;;;;;;8.07;50.08;102420.69;5054384;28;20080;-60
2023/01/24 12:19:26;;;;;;;6.22;5.53;;;;;;;8.22;49.12;102422.91;5055609;28;20056;-60
2023/01/24 12:21:56;;;;;;;8.13;5.75;;;;;;;8.26;48.83;102418.53;5055453;28;20064;-61
2023/01/24 12:24:28;;;;;;;6.32;5.60;;;;;;;8.31;48.39;102421.38;5055495;28;20049;-61